Flight Track Log - Related Links

Times and Time Zones

All times are in EDT time to prevent confusion due to time zone crossing. See the FLG3861 flight status page for this flight to view local times or setup timezone preferences in your user account.

Time Position Orientation Groundspeed Altitude Reporting Facility
EDT Latitude Longitude Course Direction KTS MPH feet Rate Location/Type
Tue 21:45:03 42.1925 -83.3539 180° South 152 175 1,300  Level Cleveland Center
Tue 21:46:10 42.1358 -83.3544 180° South 211 243 3,300 1,739 Climbing Cleveland Center
Tue 21:46:12 42.1372 -83.3531 37° Northeast 209 241 3,300 1,625 Level Cleveland Center
Tue 21:46:58 42.0878 -83.3506 178° South 245 282 4,600 1,574 Climbing Cleveland Center
Tue 21:47:13 42.0767 -83.3372 138° Southeast 241 277 4,900 1,890 Climbing Cleveland Center
Tue 21:48:11 42.0833 -83.2486 84° East 273 314 6,900 1,935 Climbing Cleveland Center
Tue 21:48:15 42.0842 -83.2428 79° East 267 307 6,900 1,837 Level Cleveland Center
Tue 21:49:00 42.1103 -83.1678 65° Northeast 286 329 8,400 1,967 Climbing Cleveland Center
Tue 21:49:16 42.1161 -83.1494 67° East 282 325 8,900 1,948 Climbing Cleveland Center
Tue 21:50:17 42.1503 -83.0531 64° Northeast 288 331 10,900 1,756 Climbing Cleveland Center
Tue 21:51:19 42.1903 -82.9436 64° Northeast 321 369 12,500 1,366 Climbing Cleveland Center
Tue 21:52:20 42.2325 -82.8264 64° Northeast 347 399 13,700 1,415 Climbing Cleveland Center
Tue 21:53:22 42.2853 -82.6814 64° Northeast 360 414 15,400 1,415 Climbing Cleveland Center
Tue 21:54:23 42.3294 -82.5575 64° Northeast 365 420 16,600 1,180 Climbing Cleveland Center
Tue 21:55:24 42.3642 -82.4264 70° East 383 441 17,800 1,171 Climbing Cleveland Center
Tue 21:56:26 42.3606 -82.2850 92° East 378 435 19,000 1,024 Climbing Cleveland Center
Tue 21:57:27 42.3544 -82.1400 93° East 386 444 19,900 689 Climbing Cleveland Center
Tue 21:58:28 42.3478 -81.9956 94° East 392 451 20,400 537 Climbing Cleveland Center
Tue 21:59:30 42.3414 -81.8408 93° East 403 464 21,000 683 Climbing Cleveland Center
Tue 22:00:31 42.3333 -81.6578 93° East 413 475 21,800 689 Climbing Cleveland Center
Tue 22:01:32 42.3256 -81.5000 94° East 415 478 22,400 585 Climbing Cleveland Center
Tue 22:02:34 42.3181 -81.3433 94° East 414 476 23,000 585 Climbing Cleveland Center
Tue 22:03:35 42.3106 -81.1839 94° East 418 481 23,600 585 Climbing Cleveland Center
Tue 22:04:37 42.3022 -81.0250 94° East 420 483 24,200 585 Climbing Cleveland Center
Tue 22:05:38 42.2942 -80.8653 94° East 422 486 24,800 590 Climbing Cleveland Center
Tue 22:06:39 42.2850 -80.7067 94° East 421 484 25,400 590 Climbing Cleveland Center
Tue 22:07:40 42.2778 -80.5506 94° East 415 478 26,000 634 Climbing Cleveland Center
Tue 22:08:42 42.2683 -80.3928 95° East 417 480 26,700 488 Climbing Cleveland Center
Tue 22:09:43 42.2694 -80.2328 89° East 422 486 27,000 148 Climbing Cleveland Center
Tue 22:10:44 42.2697 -80.0700 90° East 429 494 27,000  Level Cleveland Center
Tue 22:11:45 42.2692 -79.9161 90° East 437 503 27,000  Level Cleveland Center
Tue 22:12:47 42.2694 -79.7153 90° East 447 514 27,000  Level Cleveland Center
Tue 22:13:48 42.2694 -79.5467 90° East 452 520 27,000  Level Cleveland Center
Tue 22:14:49 42.2686 -79.3767 90° East 454 522 27,000  Level Cleveland Center
Tue 22:15:50 42.2678 -79.2064 90° East 457 526 27,000  Level Cleveland Center
Tue 22:16:52 42.2661 -79.0344 91° East 459 528 27,000 -98 Level Cleveland Center
Tue 22:17:53 42.2653 -78.8478 90° East 461 531 26,800 -885 Descending Cleveland Center
Tue 22:18:54 42.2647 -78.6728 90° East 465 535 25,200 -1,525 Descending Cleveland Center
Tue 22:19:55 42.2625 -78.4967 91° East 472 543 23,700 -1,082 Descending Cleveland Center
Tue 22:20:56 42.2608 -78.3239 91° East 466 536 23,000 -344 Descending Cleveland Center
Tue 22:21:57 42.2592 -78.1519 91° East 463 533 23,000  Level Cleveland Center
Tue 22:22:59 42.2561 -77.9792 91° East 464 534 23,000  Level Cleveland Center
Tue 22:24:00 42.2539 -77.8067 91° East 466 536 23,000 -98 Level Cleveland Center
Tue 22:25:01 42.2500 -77.6000 91° East 466 536 22,800 -1,328 Descending Cleveland Center
Tue 22:26:02 42.2472 -77.4289 91° East 463 533 20,300 -2,361 Descending Cleveland Center
Tue 22:27:03 42.2436 -77.2658 92° East 446 513 18,000 -2,146 Descending Cleveland Center
Tue 22:28:05 42.2397 -77.1069 92° East 430 495 15,900 -2,229 Descending Cleveland Center
Tue 22:28:48 42.2356 -76.9831 93° East 428 493 14,100 -2,308 Descending New York Center
Tue 22:29:49 42.2331 -76.8342 91° East 405 466 11,900 -1,967 Descending New York Center
Tue 22:30:50 42.2286 -76.7133 93° East 389 448 10,100 -1,119 Descending New York Center
Tue 22:31:47 42.2261 -76.5956 92° East 350 403 9,700 -550 Descending New York Center
Tue 22:32:50 42.2228 -76.4917 92° East 305 351 9,000 -446 Descending New York Center
Tue 22:33:48 42.2192 -76.3961 93° East 271 312 8,800 -1,169 Descending New York Center
Tue 22:34:48 42.2150 -76.3033 93° East 253 291 6,700 -2,033 Descending New York Center
Tue 22:35:49 42.2133 -76.2025 91° East 253 291 4,700 -1,350 Descending New York Center
Tue 22:36:48 42.1814 -76.1297 121° Southeast 235 270 4,000 -353 Descending New York Center
Tue 22:37:48 42.1294 -76.0808 145° Southeast 217 250 4,000 -150 Level New York Center
Tue 22:38:48 42.0967 -76.0222 127° Southeast 204 235 3,700 -446 Descending New York Center
Tue 22:39:49 42.1119 -75.9564 73° East 169 194 3,100 -443 Descending New York Center
Tue 22:40:50 42.1506 -75.9344 23° Northeast 134 154 2,800 -555 Descending New York Center
Tue 22:41:48 42.1828 -75.9564 333° Northwest 102 117 2,000 -559 Descending New York Center
Tue 22:42:48 42.2092 -75.9725 336° Northwest 102 117 1,700 -300 Descending New York Center

Login

Don't have an account? Register now (free) for customized features, flight alerts, and more!